sensor_id;sensor_type;location;lat;lon;timestamp;temperature;humidity
6110;DHT22;3085;49.444;11.054;2023-05-07T00:02:16;16.30;99.90
6110;DHT22;3085;49.444;11.054;2023-05-07T00:04:43;16.30;99.90
6110;DHT22;3085;49.444;11.054;2023-05-07T00:07:12;16.40;99.90
6110;DHT22;3085;49.444;11.054;2023-05-07T00:09:39;16.30;99.90
6110;DHT22;3085;49.444;11.054;2023-05-07T00:12:06;16.30;99.90
6110;DHT22;3085;49.444;11.054;2023-05-07T00:14:33;16.20;99.90
6110;DHT22;3085;49.444;11.054;2023-05-07T00:17:00;16.20;99.90
6110;DHT22;3085;49.444;11.054;2023-05-07T00:19:26;16.10;99.90
6110;DHT22;3085;49.444;11.054;2023-05-07T00:21:53;16.10;99.90
6110;DHT22;3085;49.444;11.054;2023-05-07T00:24:22;16.10;99.90
6110;DHT22;3085;49.444;11.054;2023-05-07T00:26:49;16.10;99.90
6110;DHT22;3085;49.444;11.054;2023-05-07T00:29:16;16.10;99.90
6110;DHT22;3085;49.444;11.054;2023-05-07T00:31:43;16.10;99.90
6110;DHT22;3085;49.444;11.054;2023-05-07T00:34:10;17.10;99.90
6110;DHT22;3085;49.444;11.054;2023-05-07T00:36:37;16.00;99.90
6110;DHT22;3085;49.444;11.054;2023-05-07T00:39:03;15.90;99.90
6110;DHT22;3085;49.444;11.054;2023-05-07T00:41:32;15.90;99.90
6110;DHT22;3085;49.444;11.054;2023-05-07T00:43:59;16.10;99.90
6110;DHT22;3085;49.444;11.054;2023-05-07T00:46:28;16.10;99.90
6110;DHT22;3085;49.444;11.054;2023-05-07T00:48:55;16.20;99.90
6110;DHT22;3085;49.444;11.054;2023-05-07T00:51:23;16.00;99.90
6110;DHT22;3085;49.444;11.054;2023-05-07T00:53:50;16.20;99.90
6110;DHT22;3085;49.444;11.054;2023-05-07T00:56:17;16.10;99.90
6110;DHT22;3085;49.444;11.054;2023-05-07T00:58:45;16.20;99.90
6110;DHT22;3085;49.444;11.054;2023-05-07T01:01:12;16.00;99.90
6110;DHT22;3085;49.444;11.054;2023-05-07T01:03:41;16.10;99.90
6110;DHT22;3085;49.444;11.054;2023-05-07T01:06:09;16.10;99.90
6110;DHT22;3085;49.444;11.054;2023-05-07T01:08:39;16.00;99.90
6110;DHT22;3085;49.444;11.054;2023-05-07T01:11:06;16.00;99.90
6110;DHT22;3085;49.444;11.054;2023-05-07T01:13:34;16.10;99.90
6110;DHT22;3085;49.444;11.054;2023-05-07T01:16:03;16.10;99.90
6110;DHT22;3085;49.444;11.054;2023-05-07T01:18:30;16.10;99.90
6110;DHT22;3085;49.444;11.054;2023-05-07T01:20:58;16.20;99.90
6110;DHT22;3085;49.444;11.054;2023-05-07T01:23:27;15.70;99.90
6110;DHT22;3085;49.444;11.054;2023-05-07T01:25:55;15.60;99.90
6110;DHT22;3085;49.444;11.054;2023-05-07T01:28:22;15.70;99.90
6110;DHT22;3085;49.444;11.054;2023-05-07T01:30:56;15.70;99.90
6110;DHT22;3085;49.444;11.054;2023-05-07T01:33:30;16.50;99.90
6110;DHT22;3085;49.444;11.054;2023-05-07T01:35:59;15.70;99.90
6110;DHT22;3085;49.444;11.054;2023-05-07T01:38:29;15.70;99.90
6110;DHT22;3085;49.444;11.054;2023-05-07T01:40:56;15.70;99.90
6110;DHT22;3085;49.444;11.054;2023-05-07T01:43:24;15.60;99.90
6110;DHT22;3085;49.444;11.054;2023-05-07T01:45:50;15.50;99.90
6110;DHT22;3085;49.444;11.054;2023-05-07T01:48:18;15.60;99.90
6110;DHT22;3085;49.444;11.054;2023-05-07T01:50:45;15.70;99.90
6110;DHT22;3085;49.444;11.054;2023-05-07T01:53:12;15.50;99.90
6110;DHT22;3085;49.444;11.054;2023-05-07T01:55:40;16.60;99.90
6110;DHT22;3085;49.444;11.054;2023-05-07T01:58:07;15.60;99.90
6110;DHT22;3085;49.444;11.054;2023-05-07T02:00:34;15.60;99.90
6110;DHT22;3085;49.444;11.054;2023-05-07T02:03:01;15.60;99.90
6110;DHT22;3085;49.444;11.054;2023-05-07T02:05:28;15.60;99.90
6110;DHT22;3085;49.444;11.054;2023-05-07T02:07:55;16.40;99.90
6110;DHT22;3085;49.444;11.054;2023-05-07T02:10:22;15.70;99.90
6110;DHT22;3085;49.444;11.054;2023-05-07T02:12:50;15.50;99.90
6110;DHT22;3085;49.444;11.054;2023-05-07T02:15:17;15.40;99.90
6110;DHT22;3085;49.444;11.054;2023-05-07T02:17:59;15.40;99.90
6110;DHT22;3085;49.444;11.054;2023-05-07T02:20:26;15.30;99.90
6110;DHT22;3085;49.444;11.054;2023-05-07T02:22:53;15.30;99.90
6110;DHT22;3085;49.444;11.054;2023-05-07T02:25:20;15.30;99.90
6110;DHT22;3085;49.444;11.054;2023-05-07T02:27:47;15.30;99.90
6110;DHT22;3085;49.444;11.054;2023-05-07T02:30:15;15.40;99.90
6110;DHT22;3085;49.444;11.054;2023-05-07T02:32:42;15.40;99.90
6110;DHT22;3085;49.444;11.054;2023-05-07T02:35:09;15.40;99.90
6110;DHT22;3085;49.444;11.054;2023-05-07T02:37:36;15.40;99.90
6110;DHT22;3085;49.444;11.054;2023-05-07T02:40:04;15.30;99.90
6110;DHT22;3085;49.444;11.054;2023-05-07T02:42:31;15.20;99.90
6110;DHT22;3085;49.444;11.054;2023-05-07T02:44:58;15.30;99.90
6110;DHT22;3085;49.444;11.054;2023-05-07T02:47:26;15.30;99.90
6110;DHT22;3085;49.444;11.054;2023-05-07T02:49:54;15.20;99.90
6110;DHT22;3085;49.444;11.054;2023-05-07T02:52:20;15.20;99.90
6110;DHT22;3085;49.444;11.054;2023-05-07T02:54:47;15.20;99.90
6110;DHT22;3085;49.444;11.054;2023-05-07T02:57:14;15.20;99.90
6110;DHT22;3085;49.444;11.054;2023-05-07T02:59:41;15.10;99.90
6110;DHT22;3085;49.444;11.054;2023-05-07T03:02:09;15.20;99.90
6110;DHT22;3085;49.444;11.054;2023-05-07T03:04:37;14.90;99.90
6110;DHT22;3085;49.444;11.054;2023-05-07T03:07:04;15.00;99.90
6110;DHT22;3085;49.444;11.054;2023-05-07T03:09:31;15.00;99.90
6110;DHT22;3085;49.444;11.054;2023-05-07T03:11:57;15.00;99.90
6110;DHT22;3085;49.444;11.054;2023-05-07T03:14:24;15.10;99.90
6110;DHT22;3085;49.444;11.054;2023-05-07T03:16:51;15.00;99.90
6110;DHT22;3085;49.444;11.054;2023-05-07T03:19:18;14.80;99.90
6110;DHT22;3085;49.444;11.054;2023-05-07T03:21:47;14.90;99.90
6110;DHT22;3085;49.444;11.054;2023-05-07T03:24:14;14.90;99.90
6110;DHT22;3085;49.444;11.054;2023-05-07T03:26:40;14.90;99.90
6110;DHT22;3085;49.444;11.054;2023-05-07T03:29:07;14.90;99.90
6110;DHT22;3085;49.444;11.054;2023-05-07T03:31:34;14.80;99.90
6110;DHT22;3085;49.444;11.054;2023-05-07T03:34:01;14.80;99.90
6110;DHT22;3085;49.444;11.054;2023-05-07T03:36:27;14.90;99.90
6110;DHT22;3085;49.444;11.054;2023-05-07T03:38:56;14.90;99.90
6110;DHT22;3085;49.444;11.054;2023-05-07T03:41:23;14.70;99.90
6110;DHT22;3085;49.444;11.054;2023-05-07T03:43:51;14.80;99.90
6110;DHT22;3085;49.444;11.054;2023-05-07T03:46:18;14.80;99.90
6110;DHT22;3085;49.444;11.054;2023-05-07T03:48:45;14.80;99.90
6110;DHT22;3085;49.444;11.054;2023-05-07T03:51:12;14.80;99.90
6110;DHT22;3085;49.444;11.054;2023-05-07T03:53:39;14.70;99.90
6110;DHT22;3085;49.444;11.054;2023-05-07T03:56:07;16.60;99.90
6110;DHT22;3085;49.444;11.054;2023-05-07T03:58:34;14.70;99.90
6110;DHT22;3085;49.444;11.054;2023-05-07T04:01:01;14.70;99.90
6110;DHT22;3085;49.444;11.054;2023-05-07T04:03:28;14.70;99.90
6110;DHT22;3085;49.444;11.054;2023-05-07T04:05:56;14.70;99.90
6110;DHT22;3085;49.444;11.054;2023-05-07T04:08:23;14.80;99.90
6110;DHT22;3085;49.444;11.054;2023-05-07T04:10:54;14.90;99.90
6110;DHT22;3085;49.444;11.054;2023-05-07T04:13:23;15.00;99.90
6110;DHT22;3085;49.444;11.054;2023-05-07T04:15:50;14.90;99.90
6110;DHT22;3085;49.444;11.054;2023-05-07T04:18:17;14.90;99.90
6110;DHT22;3085;49.444;11.054;2023-05-07T04:20:44;14.80;99.90
6110;DHT22;3085;49.444;11.054;2023-05-07T04:23:11;14.80;99.90
6110;DHT22;3085;49.444;11.054;2023-05-07T04:25:38;15.00;99.90
6110;DHT22;3085;49.444;11.054;2023-05-07T04:28:05;14.90;99.90
6110;DHT22;3085;49.444;11.054;2023-05-07T04:30:36;13.70;99.90
6110;DHT22;3085;49.444;11.054;2023-05-07T04:33:03;14.90;99.90
6110;DHT22;3085;49.444;11.054;2023-05-07T04:35:32;15.00;99.90
6110;DHT22;3085;49.444;11.054;2023-05-07T04:37:59;14.90;99.90
6110;DHT22;3085;49.444;11.054;2023-05-07T04:40:27;15.10;99.90
6110;DHT22;3085;49.444;11.054;2023-05-07T04:42:54;15.10;99.90
6110;DHT22;3085;49.444;11.054;2023-05-07T04:45:21;15.00;99.90
6110;DHT22;3085;49.444;11.054;2023-05-07T04:47:49;15.00;99.90
6110;DHT22;3085;49.444;11.054;2023-05-07T04:50:16;14.90;99.90
6110;DHT22;3085;49.444;11.054;2023-05-07T04:52:45;14.90;99.90
6110;DHT22;3085;49.444;11.054;2023-05-07T04:55:12;15.10;99.90
6110;DHT22;3085;49.444;11.054;2023-05-07T04:57:39;15.00;99.90
6110;DHT22;3085;49.444;11.054;2023-05-07T05:00:07;15.10;99.90
6110;DHT22;3085;49.444;11.054;2023-05-07T05:02:35;15.00;99.90
6110;DHT22;3085;49.444;11.054;2023-05-07T05:05:04;14.90;99.90
6110;DHT22;3085;49.444;11.054;2023-05-07T05:07:31;15.00;99.90
6110;DHT22;3085;49.444;11.054;2023-05-07T05:09:58;15.00;99.90
6110;DHT22;3085;49.444;11.054;2023-05-07T05:12:25;15.00;99.90
6110;DHT22;3085;49.444;11.054;2023-05-07T05:14:52;15.10;99.90
6110;DHT22;3085;49.444;11.054;2023-05-07T05:17:19;16.10;99.90
6110;DHT22;3085;49.444;11.054;2023-05-07T05:19:46;16.20;99.90
6110;DHT22;3085;49.444;11.054;2023-05-07T05:22:14;14.90;99.90
6110;DHT22;3085;49.444;11.054;2023-05-07T05:24:41;15.20;99.90
6110;DHT22;3085;49.444;11.054;2023-05-07T05:27:07;16.50;99.90
6110;DHT22;3085;49.444;11.054;2023-05-07T05:29:34;14.90;99.90
6110;DHT22;3085;49.444;11.054;2023-05-07T05:32:01;15.00;99.90
6110;DHT22;3085;49.444;11.054;2023-05-07T05:34:28;14.90;99.90
6110;DHT22;3085;49.444;11.054;2023-05-07T05:36:55;15.80;99.90
6110;DHT22;3085;49.444;11.054;2023-05-07T05:39:23;14.90;99.90
6110;DHT22;3085;49.444;11.054;2023-05-07T05:41:50;14.90;99.90
6110;DHT22;3085;49.444;11.054;2023-05-07T05:44:17;15.00;99.90
6110;DHT22;3085;49.444;11.054;2023-05-07T05:46:44;14.90;99.90
6110;DHT22;3085;49.444;11.054;2023-05-07T05:49:11;14.90;99.90
6110;DHT22;3085;49.444;11.054;2023-05-07T05:51:38;14.90;99.90
6110;DHT22;3085;49.444;11.054;2023-05-07T05:54:05;15.00;99.90
6110;DHT22;3085;49.444;11.054;2023-05-07T05:56:33;15.00;99.90
6110;DHT22;3085;49.444;11.054;2023-05-07T05:59:02;15.00;99.90
6110;DHT22;3085;49.444;11.054;2023-05-07T06:01:29;15.10;99.90
6110;DHT22;3085;49.444;11.054;2023-05-07T06:03:56;15.00;99.90
6110;DHT22;3085;49.444;11.054;2023-05-07T06:06:23;15.00;99.90
6110;DHT22;3085;49.444;11.054;2023-05-07T06:08:50;17.20;99.90
6110;DHT22;3085;49.444;11.054;2023-05-07T06:11:17;15.10;99.90
6110;DHT22;3085;49.444;11.054;2023-05-07T06:13:45;16.60;99.90
6110;DHT22;3085;49.444;11.054;2023-05-07T06:16:12;16.30;99.90
6110;DHT22;3085;49.444;11.054;2023-05-07T06:18:39;15.20;99.90
6110;DHT22;3085;49.444;11.054;2023-05-07T06:21:05;15.30;99.90
6110;DHT22;3085;49.444;11.054;2023-05-07T06:23:32;15.40;99.90
6110;DHT22;3085;49.444;11.054;2023-05-07T06:25:59;15.40;99.90
6110;DHT22;3085;49.444;11.054;2023-05-07T06:28:26;15.50;99.90
6110;DHT22;3085;49.444;11.054;2023-05-07T06:30:54;15.40;99.90
6110;DHT22;3085;49.444;11.054;2023-05-07T06:33:21;15.50;99.90
6110;DHT22;3085;49.444;11.054;2023-05-07T06:35:48;15.60;99.90
6110;DHT22;3085;49.444;11.054;2023-05-07T06:38:15;15.70;99.90
6110;DHT22;3085;49.444;11.054;2023-05-07T06:40:43;15.70;99.90
6110;DHT22;3085;49.444;11.054;2023-05-07T06:43:09;15.70;99.90
6110;DHT22;3085;49.444;11.054;2023-05-07T06:45:36;15.70;99.90
6110;DHT22;3085;49.444;11.054;2023-05-07T06:48:05;16.10;99.90
6110;DHT22;3085;49.444;11.054;2023-05-07T06:50:32;16.20;99.90
6110;DHT22;3085;49.444;11.054;2023-05-07T06:52:59;16.00;99.90
6110;DHT22;3085;49.444;11.054;2023-05-07T06:55:26;16.10;99.90
6110;DHT22;3085;49.444;11.054;2023-05-07T06:57:53;16.30;99.90
6110;DHT22;3085;49.444;11.054;2023-05-07T07:00:20;16.30;99.90
6110;DHT22;3085;49.444;11.054;2023-05-07T07:02:47;16.40;99.90
6110;DHT22;3085;49.444;11.054;2023-05-07T07:05:15;16.70;99.90
6110;DHT22;3085;49.444;11.054;2023-05-07T07:07:42;16.40;99.90
6110;DHT22;3085;49.444;11.054;2023-05-07T07:10:10;17.30;99.90
6110;DHT22;3085;49.444;11.054;2023-05-07T07:12:37;16.60;99.90
6110;DHT22;3085;49.444;11.054;2023-05-07T07:15:04;16.60;99.90
6110;DHT22;3085;49.444;11.054;2023-05-07T07:17:31;16.50;99.90
6110;DHT22;3085;49.444;11.054;2023-05-07T07:19:58;16.60;99.90
6110;DHT22;3085;49.444;11.054;2023-05-07T07:22:26;16.70;99.90
6110;DHT22;3085;49.444;11.054;2023-05-07T07:24:53;16.70;99.90
6110;DHT22;3085;49.444;11.054;2023-05-07T07:27:20;17.00;99.90
6110;DHT22;3085;49.444;11.054;2023-05-07T07:29:47;17.10;99.90
6110;DHT22;3085;49.444;11.054;2023-05-07T07:32:14;17.20;99.90
6110;DHT22;3085;49.444;11.054;2023-05-07T07:34:41;18.10;99.90
6110;DHT22;3085;49.444;11.054;2023-05-07T07:37:08;17.40;99.90
6110;DHT22;3085;49.444;11.054;2023-05-07T07:39:36;18.80;99.90
6110;DHT22;3085;49.444;11.054;2023-05-07T07:42:04;17.90;99.90
6110;DHT22;3085;49.444;11.054;2023-05-07T07:44:31;17.50;99.90
6110;DHT22;3085;49.444;11.054;2023-05-07T07:46:57;17.50;99.90
6110;DHT22;3085;49.444;11.054;2023-05-07T07:49:24;17.60;99.90
6110;DHT22;3085;49.444;11.054;2023-05-07T07:51:51;17.50;99.90
6110;DHT22;3085;49.444;11.054;2023-05-07T07:54:18;17.30;99.90
6110;DHT22;3085;49.444;11.054;2023-05-07T07:56:47;18.30;99.90
6110;DHT22;3085;49.444;11.054;2023-05-07T07:59:14;19.00;99.90
6110;DHT22;3085;49.444;11.054;2023-05-07T08:01:44;17.60;99.90
6110;DHT22;3085;49.444;11.054;2023-05-07T08:04:11;17.60;99.90
6110;DHT22;3085;49.444;11.054;2023-05-07T08:06:38;17.80;99.90
6110;DHT22;3085;49.444;11.054;2023-05-07T08:09:05;17.70;99.90
6110;DHT22;3085;49.444;11.054;2023-05-07T08:11:32;17.60;99.90
6110;DHT22;3085;49.444;11.054;2023-05-07T08:14:00;17.60;99.90
6110;DHT22;3085;49.444;11.054;2023-05-07T08:16:28;17.80;99.90
6110;DHT22;3085;49.444;11.054;2023-05-07T08:18:56;17.90;99.90
6110;DHT22;3085;49.444;11.054;2023-05-07T08:21:23;18.00;99.90
6110;DHT22;3085;49.444;11.054;2023-05-07T08:23:50;18.00;99.90
6110;DHT22;3085;49.444;11.054;2023-05-07T08:26:16;18.20;99.90
6110;DHT22;3085;49.444;11.054;2023-05-07T08:28:43;18.10;99.90
6110;DHT22;3085;49.444;11.054;2023-05-07T08:31:12;18.20;99.90
6110;DHT22;3085;49.444;11.054;2023-05-07T08:33:38;18.20;99.90
6110;DHT22;3085;49.444;11.054;2023-05-07T08:36:05;18.40;99.90
6110;DHT22;3085;49.444;11.054;2023-05-07T08:38:32;18.50;99.90
6110;DHT22;3085;49.444;11.054;2023-05-07T08:40:59;18.60;99.90
6110;DHT22;3085;49.444;11.054;2023-05-07T08:43:27;18.90;99.90
6110;DHT22;3085;49.444;11.054;2023-05-07T08:45:54;18.70;99.90
6110;DHT22;3085;49.444;11.054;2023-05-07T08:48:25;18.90;99.90
6110;DHT22;3085;49.444;11.054;2023-05-07T08:50:54;18.90;99.90
6110;DHT22;3085;49.444;11.054;2023-05-07T08:53:21;18.90;99.90
6110;DHT22;3085;49.444;11.054;2023-05-07T08:55:49;19.00;99.90
6110;DHT22;3085;49.444;11.054;2023-05-07T08:58:16;18.70;99.90
6110;DHT22;3085;49.444;11.054;2023-05-07T09:00:43;19.00;99.90
6110;DHT22;3085;49.444;11.054;2023-05-07T09:03:10;19.00;99.90
6110;DHT22;3085;49.444;11.054;2023-05-07T09:05:39;19.10;99.90
6110;DHT22;3085;49.444;11.054;2023-05-07T09:08:07;19.20;99.90
6110;DHT22;3085;49.444;11.054;2023-05-07T09:10:34;19.50;99.90
6110;DHT22;3085;49.444;11.054;2023-05-07T09:13:03;19.50;99.90
6110;DHT22;3085;49.444;11.054;2023-05-07T09:15:30;20.00;99.90
6110;DHT22;3085;49.444;11.054;2023-05-07T09:17:59;19.50;99.90
6110;DHT22;3085;49.444;11.054;2023-05-07T09:20:29;19.50;99.90
6110;DHT22;3085;49.444;11.054;2023-05-07T09:22:58;19.60;99.90
6110;DHT22;3085;49.444;11.054;2023-05-07T09:25:29;19.70;99.90
6110;DHT22;3085;49.444;11.054;2023-05-07T09:27:56;19.70;99.90
6110;DHT22;3085;49.444;11.054;2023-05-07T09:30:26;19.80;99.90
6110;DHT22;3085;49.444;11.054;2023-05-07T09:32:53;19.90;99.90
6110;DHT22;3085;49.444;11.054;2023-05-07T09:35:20;20.00;99.90
6110;DHT22;3085;49.444;11.054;2023-05-07T09:37:49;20.10;99.90
6110;DHT22;3085;49.444;11.054;2023-05-07T09:40:22;20.10;99.90
6110;DHT22;3085;49.444;11.054;2023-05-07T09:42:49;20.20;99.90
6110;DHT22;3085;49.444;11.054;2023-05-07T09:45:17;20.50;99.90
6110;DHT22;3085;49.444;11.054;2023-05-07T09:47:48;20.40;99.90
6110;DHT22;3085;49.444;11.054;2023-05-07T09:50:16;20.50;99.90
6110;DHT22;3085;49.444;11.054;2023-05-07T09:52:44;20.40;99.90
6110;DHT22;3085;49.444;11.054;2023-05-07T09:55:12;20.50;99.90
6110;DHT22;3085;49.444;11.054;2023-05-07T09:57:42;20.60;99.90
6110;DHT22;3085;49.444;11.054;2023-05-07T10:00:10;20.60;99.90
6110;DHT22;3085;49.444;11.054;2023-05-07T10:02:39;20.70;99.90
6110;DHT22;3085;49.444;11.054;2023-05-07T10:05:12;20.90;99.90
6110;DHT22;3085;49.444;11.054;2023-05-07T10:07:40;21.00;99.90
6110;DHT22;3085;49.444;11.054;2023-05-07T10:10:08;20.90;99.90
6110;DHT22;3085;49.444;11.054;2023-05-07T10:12:35;20.90;99.90
6110;DHT22;3085;49.444;11.054;2023-05-07T10:15:08;21.10;99.90
6110;DHT22;3085;49.444;11.054;2023-05-07T10:17:36;21.20;99.90
6110;DHT22;3085;49.444;11.054;2023-05-07T10:20:04;21.30;99.90
6110;DHT22;3085;49.444;11.054;2023-05-07T10:22:36;21.30;99.90
6110;DHT22;3085;49.444;11.054;2023-05-07T10:25:07;21.30;99.90
6110;DHT22;3085;49.444;11.054;2023-05-07T10:27:37;21.20;99.90
6110;DHT22;3085;49.444;11.054;2023-05-07T10:30:14;21.10;99.90
6110;DHT22;3085;49.444;11.054;2023-05-07T10:32:47;21.00;99.90
6110;DHT22;3085;49.444;11.054;2023-05-07T10:35:17;21.10;99.90
6110;DHT22;3085;49.444;11.054;2023-05-07T10:37:46;21.00;99.90
6110;DHT22;3085;49.444;11.054;2023-05-07T10:40:13;21.10;99.90
6110;DHT22;3085;49.444;11.054;2023-05-07T10:42:53;21.20;99.90
6110;DHT22;3085;49.444;11.054;2023-05-07T10:45:23;21.40;99.90
6110;DHT22;3085;49.444;11.054;2023-05-07T10:48:10;21.40;99.90
6110;DHT22;3085;49.444;11.054;2023-05-07T10:50:38;21.40;99.90
6110;DHT22;3085;49.444;11.054;2023-05-07T10:53:24;21.40;99.90
6110;DHT22;3085;49.444;11.054;2023-05-07T10:56:24;21.40;99.90
6110;DHT22;3085;49.444;11.054;2023-05-07T10:58:52;21.40;99.90
6110;DHT22;3085;49.444;11.054;2023-05-07T11:04:25;21.60;99.90
6110;DHT22;3085;49.444;11.054;2023-05-07T11:07:26;21.60;99.90
6110;DHT22;3085;49.444;11.054;2023-05-07T11:10:01;21.60;99.90
6110;DHT22;3085;49.444;11.054;2023-05-07T11:12:49;21.70;99.90
6110;DHT22;3085;49.444;11.054;2023-05-07T11:15:36;21.70;99.90
6110;DHT22;3085;49.444;11.054;2023-05-07T11:18:04;21.60;99.90
6110;DHT22;3085;49.444;11.054;2023-05-07T11:20:50;21.50;99.90
6110;DHT22;3085;49.444;11.054;2023-05-07T11:24:00;21.20;99.90
6110;DHT22;3085;49.444;11.054;2023-05-07T11:26:41;21.20;99.90
6110;DHT22;3085;49.444;11.054;2023-05-07T11:29:14;21.30;99.90
6110;DHT22;3085;49.444;11.054;2023-05-07T11:31:41;21.30;99.90
6110;DHT22;3085;49.444;11.054;2023-05-07T11:34:09;21.30;99.90
6110;DHT22;3085;49.444;11.054;2023-05-07T11:36:42;21.40;99.90
6110;DHT22;3085;49.444;11.054;2023-05-07T11:39:31;21.40;99.90
6110;DHT22;3085;49.444;11.054;2023-05-07T11:41:59;21.50;99.90
6110;DHT22;3085;49.444;11.054;2023-05-07T11:44:42;21.60;99.90
6110;DHT22;3085;49.444;11.054;2023-05-07T11:47:10;21.60;99.90
6110;DHT22;3085;49.444;11.054;2023-05-07T11:49:37;21.50;99.90
6110;DHT22;3085;49.444;11.054;2023-05-07T11:52:05;21.50;99.90
6110;DHT22;3085;49.444;11.054;2023-05-07T11:54:35;21.60;99.90
6110;DHT22;3085;49.444;11.054;2023-05-07T11:57:03;21.70;99.90
6110;DHT22;3085;49.444;11.054;2023-05-07T11:59:38;21.90;99.90
6110;DHT22;3085;49.444;11.054;2023-05-07T12:02:05;21.90;99.90
6110;DHT22;3085;49.444;11.054;2023-05-07T12:04:32;21.90;99.90
6110;DHT22;3085;49.444;11.054;2023-05-07T12:06:59;22.10;99.90
6110;DHT22;3085;49.444;11.054;2023-05-07T12:09:28;22.10;99.90
6110;DHT22;3085;49.444;11.054;2023-05-07T12:11:55;22.10;99.90
6110;DHT22;3085;49.444;11.054;2023-05-07T12:14:26;22.10;99.90
6110;DHT22;3085;49.444;11.054;2023-05-07T12:16:54;22.00;99.90
6110;DHT22;3085;49.444;11.054;2023-05-07T12:19:21;21.90;99.90
6110;DHT22;3085;49.444;11.054;2023-05-07T12:21:49;22.00;99.90
6110;DHT22;3085;49.444;11.054;2023-05-07T12:24:16;22.00;99.90
6110;DHT22;3085;49.444;11.054;2023-05-07T12:26:45;22.10;99.90
6110;DHT22;3085;49.444;11.054;2023-05-07T12:29:12;22.30;99.90
6110;DHT22;3085;49.444;11.054;2023-05-07T12:31:41;22.60;99.90
6110;DHT22;3085;49.444;11.054;2023-05-07T12:34:08;22.70;99.90
6110;DHT22;3085;49.444;11.054;2023-05-07T12:36:37;22.60;99.90
6110;DHT22;3085;49.444;11.054;2023-05-07T12:39:05;22.50;99.90
6110;DHT22;3085;49.444;11.054;2023-05-07T12:41:36;22.50;99.90
6110;DHT22;3085;49.444;11.054;2023-05-07T12:44:22;22.40;99.90
6110;DHT22;3085;49.444;11.054;2023-05-07T12:46:49;22.10;99.90
6110;DHT22;3085;49.444;11.054;2023-05-07T12:49:16;22.10;99.90
6110;DHT22;3085;49.444;11.054;2023-05-07T12:51:43;22.10;99.90
6110;DHT22;3085;49.444;11.054;2023-05-07T12:54:10;22.10;99.90
6110;DHT22;3085;49.444;11.054;2023-05-07T12:56:37;22.10;99.90
6110;DHT22;3085;49.444;11.054;2023-05-07T12:59:04;22.20;99.90
6110;DHT22;3085;49.444;11.054;2023-05-07T13:01:34;22.20;99.90
6110;DHT22;3085;49.444;11.054;2023-05-07T13:04:02;22.20;99.90
6110;DHT22;3085;49.444;11.054;2023-05-07T13:06:31;22.10;99.90
6110;DHT22;3085;49.444;11.054;2023-05-07T13:08:58;22.20;99.90
6110;DHT22;3085;49.444;11.054;2023-05-07T13:11:24;22.10;99.90
6110;DHT22;3085;49.444;11.054;2023-05-07T13:13:51;22.10;99.90
6110;DHT22;3085;49.444;11.054;2023-05-07T13:16:18;22.10;99.90
6110;DHT22;3085;49.444;11.054;2023-05-07T13:18:47;22.10;99.90
6110;DHT22;3085;49.444;11.054;2023-05-07T13:21:14;22.00;99.90
6110;DHT22;3085;49.444;11.054;2023-05-07T13:23:41;22.00;99.90
6110;DHT22;3085;49.444;11.054;2023-05-07T13:26:08;21.90;99.90
6110;DHT22;3085;49.444;11.054;2023-05-07T13:28:35;22.00;99.90
6110;DHT22;3085;49.444;11.054;2023-05-07T13:31:02;22.00;99.90
6110;DHT22;3085;49.444;11.054;2023-05-07T13:33:29;22.00;99.90
6110;DHT22;3085;49.444;11.054;2023-05-07T13:35:58;22.00;99.90
6110;DHT22;3085;49.444;11.054;2023-05-07T13:38:26;21.90;99.90
6110;DHT22;3085;49.444;11.054;2023-05-07T13:40:53;21.80;99.90
6110;DHT22;3085;49.444;11.054;2023-05-07T13:43:20;21.80;99.90
6110;DHT22;3085;49.444;11.054;2023-05-07T13:45:47;21.90;99.90
6110;DHT22;3085;49.444;11.054;2023-05-07T13:48:13;21.90;99.90
6110;DHT22;3085;49.444;11.054;2023-05-07T13:50:40;22.00;99.90
6110;DHT22;3085;49.444;11.054;2023-05-07T13:53:09;22.00;99.90
6110;DHT22;3085;49.444;11.054;2023-05-07T13:55:39;21.90;99.90
6110;DHT22;3085;49.444;11.054;2023-05-07T13:58:06;22.00;99.90
6110;DHT22;3085;49.444;11.054;2023-05-07T14:00:33;22.00;99.90
6110;DHT22;3085;49.444;11.054;2023-05-07T14:03:00;22.00;99.90
6110;DHT22;3085;49.444;11.054;2023-05-07T14:05:27;22.00;99.90
6110;DHT22;3085;49.444;11.054;2023-05-07T14:07:54;22.00;99.90
6110;DHT22;3085;49.444;11.054;2023-05-07T14:10:23;23.20;99.90
6110;DHT22;3085;49.444;11.054;2023-05-07T14:12:50;22.00;99.90
6110;DHT22;3085;49.444;11.054;2023-05-07T14:15:18;22.40;99.90
6110;DHT22;3085;49.444;11.054;2023-05-07T14:17:45;22.40;99.90
6110;DHT22;3085;49.444;11.054;2023-05-07T14:20:12;22.50;99.90
6110;DHT22;3085;49.444;11.054;2023-05-07T14:22:39;22.60;99.90
6110;DHT22;3085;49.444;11.054;2023-05-07T14:25:07;22.60;99.90
6110;DHT22;3085;49.444;11.054;2023-05-07T14:27:36;22.70;99.90
6110;DHT22;3085;49.444;11.054;2023-05-07T14:30:03;22.80;99.90
6110;DHT22;3085;49.444;11.054;2023-05-07T14:32:30;22.80;99.90
6110;DHT22;3085;49.444;11.054;2023-05-07T14:34:57;22.80;99.90
6110;DHT22;3085;49.444;11.054;2023-05-07T14:37:24;22.70;99.90
6110;DHT22;3085;49.444;11.054;2023-05-07T14:39:50;22.70;99.90
6110;DHT22;3085;49.444;11.054;2023-05-07T14:42:17;22.70;99.90
6110;DHT22;3085;49.444;11.054;2023-05-07T14:44:46;22.80;99.90
6110;DHT22;3085;49.444;11.054;2023-05-07T14:47:13;22.80;99.90
6110;DHT22;3085;49.444;11.054;2023-05-07T14:49:41;22.80;99.90
6110;DHT22;3085;49.444;11.054;2023-05-07T14:52:10;22.70;99.90
6110;DHT22;3085;49.444;11.054;2023-05-07T14:54:37;22.80;99.90
6110;DHT22;3085;49.444;11.054;2023-05-07T14:57:05;22.70;99.90
6110;DHT22;3085;49.444;11.054;2023-05-07T14:59:32;22.70;99.90
6110;DHT22;3085;49.444;11.054;2023-05-07T15:02:01;22.60;99.90
6110;DHT22;3085;49.444;11.054;2023-05-07T15:04:28;22.50;99.90
6110;DHT22;3085;49.444;11.054;2023-05-07T15:06:54;22.50;99.90
6110;DHT22;3085;49.444;11.054;2023-05-07T15:09:22;22.40;99.90
6110;DHT22;3085;49.444;11.054;2023-05-07T15:11:55;22.30;99.90
6110;DHT22;3085;49.444;11.054;2023-05-07T15:14:22;22.30;99.90
6110;DHT22;3085;49.444;11.054;2023-05-07T15:16:49;22.10;99.90
6110;DHT22;3085;49.444;11.054;2023-05-07T15:19:17;22.10;99.90
6110;DHT22;3085;49.444;11.054;2023-05-07T15:21:44;22.10;99.90
6110;DHT22;3085;49.444;11.054;2023-05-07T15:24:11;22.10;99.90
6110;DHT22;3085;49.444;11.054;2023-05-07T15:26:37;22.10;99.90
6110;DHT22;3085;49.444;11.054;2023-05-07T15:29:04;22.00;99.90
6110;DHT22;3085;49.444;11.054;2023-05-07T15:31:35;22.00;99.90
6110;DHT22;3085;49.444;11.054;2023-05-07T15:34:02;22.10;99.90
6110;DHT22;3085;49.444;11.054;2023-05-07T15:36:31;22.10;99.90
6110;DHT22;3085;49.444;11.054;2023-05-07T15:38:58;22.00;99.90
6110;DHT22;3085;49.444;11.054;2023-05-07T15:41:25;21.90;99.90
6110;DHT22;3085;49.444;11.054;2023-05-07T15:43:52;21.90;99.90
6110;DHT22;3085;49.444;11.054;2023-05-07T15:46:20;21.90;99.90
6110;DHT22;3085;49.444;11.054;2023-05-07T15:48:48;21.80;99.90
6110;DHT22;3085;49.444;11.054;2023-05-07T15:51:15;21.80;99.90
6110;DHT22;3085;49.444;11.054;2023-05-07T15:53:44;21.80;99.90
6110;DHT22;3085;49.444;11.054;2023-05-07T15:56:11;21.70;99.90